Time,TemperatureF,DewpointF,PressureIn,WindDirection,WindDirectionDegrees,WindSpeedMPH,WindSpeedGustMPH,Humidity,HourlyPrecipIn,Conditions,Clouds,dailyrainin,SoftwareType,DateUTC
2013-01-06 00:02:00,25.5,22.2,29.85,WNW,293,1.0,-999.0,87,0.00,,,0.00,Wunderground v.1.15,2013-01-06 06:02:00,
2013-01-06 00:07:00,25.5,22.2,29.85,WNW,293,1.0,-999.0,87,0.00,,,0.00,Wunderground v.1.15,2013-01-06 06:07:00,
2013-01-06 00:12:00,25.5,22.2,29.85,WNW,293,1.0,-999.0,87,0.00,,,0.00,Wunderground v.1.15,2013-01-06 06:12:00,
2013-01-06 00:17:00,25.3,22.0,29.85,WNW,293,0.0,-999.0,87,0.00,,,0.00,Wunderground v.1.15,2013-01-06 06:17:00,
2013-01-06 00:22:00,25.3,22.0,29.85,WNW,293,0.0,-999.0,87,0.00,,,0.00,Wunderground v.1.15,2013-01-06 06:22:00,
2013-01-06 00:27:00,25.3,22.0,29.85,WNW,293,1.0,-999.0,87,0.00,,,0.00,Wunderground v.1.15,2013-01-06 06:27:00,
2013-01-06 00:32:00,25.3,22.0,29.85,WNW,293,1.0,-999.0,87,0.00,,,0.00,Wunderground v.1.15,2013-01-06 06:32:00,
2013-01-06 00:37:00,25.4,22.1,29.85,WNW,293,1.0,-999.0,87,0.00,,,0.00,Wunderground v.1.15,2013-01-06 06:37:00,
2013-01-06 00:42:00,25.4,22.1,29.85,WNW,293,1.0,-999.0,87,0.00,,,0.00,Wunderground v.1.15,2013-01-06 06:42:00,
2013-01-06 00:47:00,25.2,21.9,29.85,NW,315,1.0,-999.0,87,0.00,,,0.00,Wunderground v.1.15,2013-01-06 06:47:00,
2013-01-06 00:52:00,25.2,21.9,29.85,NW,315,1.0,-999.0,87,0.00,,,0.00,Wunderground v.1.15,2013-01-06 06:52:00,
2013-01-06 00:57:00,25.1,21.8,29.84,NW,315,1.0,-999.0,87,0.00,,,0.00,Wunderground v.1.15,2013-01-06 06:57:00,
2013-01-06 01:02:00,25.1,21.8,29.84,NW,315,1.0,-999.0,87,0.00,,,0.00,Wunderground v.1.15,2013-01-06 07:02:00,
2013-01-06 01:07:00,24.9,21.6,29.84,NW,315,0.0,-999.0,87,0.00,,,0.00,Wunderground v.1.15,2013-01-06 07:07:00,
2013-01-06 01:12:00,24.9,21.6,29.84,NW,315,0.0,-999.0,87,0.00,,,0.00,Wunderground v.1.15,2013-01-06 07:12:00,
2013-01-06 01:17:00,24.7,21.4,29.84,West,270,0.0,-999.0,87,0.00,,,0.00,Wunderground v.1.15,2013-01-06 07:17:00,
2013-01-06 01:22:00,24.7,21.4,29.84,West,270,0.0,-999.0,87,0.00,,,0.00,Wunderground v.1.15,2013-01-06 07:22:00,
2013-01-06 01:27:00,24.5,21.2,29.84,NW,315,0.0,-999.0,87,0.00,,,0.00,Wunderground v.1.15,2013-01-06 07:27:00,
2013-01-06 01:32:00,24.5,21.2,29.84,NW,315,0.0,-999.0,87,0.00,,,0.00,Wunderground v.1.15,2013-01-06 07:32:00,
2013-01-06 01:37:00,24.4,21.1,29.84,NW,315,0.0,-999.0,87,0.00,,,0.00,Wunderground v.1.15,2013-01-06 07:37:00,
2013-01-06 01:42:00,24.4,21.1,29.84,NW,315,0.0,-999.0,87,0.00,,,0.00,Wunderground v.1.15,2013-01-06 07:42:00,
2013-01-06 01:47:00,24.5,21.2,29.85,NW,315,2.0,-999.0,87,0.00,,,0.00,Wunderground v.1.15,2013-01-06 07:47:00,
2013-01-06 01:52:00,24.5,21.2,29.85,NW,315,2.0,-999.0,87,0.00,,,0.00,Wunderground v.1.15,2013-01-06 07:52:00,
2013-01-06 01:57:00,24.8,21.2,29.85,NW,315,2.0,-999.0,86,0.00,,,0.00,Wunderground v.1.15,2013-01-06 07:57:00,
2013-01-06 02:02:00,24.8,21.2,29.85,NW,315,2.0,-999.0,86,0.00,,,0.00,Wunderground v.1.15,2013-01-06 08:02:00,
2013-01-06 02:07:00,24.7,21.1,29.86,NW,315,2.0,-999.0,86,0.00,,,0.00,Wunderground v.1.15,2013-01-06 08:07:00,
2013-01-06 02:12:00,24.7,21.1,29.86,NW,315,2.0,-999.0,86,0.00,,,0.00,Wunderground v.1.15,2013-01-06 08:12:00,
2013-01-06 02:17:00,24.7,21.1,29.86,NW,315,3.0,-999.0,86,0.00,,,0.00,Wunderground v.1.15,2013-01-06 08:17:00,
2013-01-06 02:22:00,24.7,21.1,29.86,NW,315,3.0,-999.0,86,0.00,,,0.00,Wunderground v.1.15,2013-01-06 08:22:00,
2013-01-06 02:27:00,24.7,20.8,29.86,NW,315,3.0,-999.0,85,0.00,,,0.00,Wunderground v.1.15,2013-01-06 08:27:00,
2013-01-06 02:32:00,24.7,20.8,29.86,NW,315,3.0,-999.0,85,0.00,,,0.00,Wunderground v.1.15,2013-01-06 08:32:00,
2013-01-06 02:37:00,24.9,21.0,29.86,NW,315,3.0,-999.0,85,0.00,,,0.00,Wunderground v.1.15,2013-01-06 08:37:00,
2013-01-06 02:42:00,24.9,21.0,29.86,NW,315,3.0,-999.0,85,0.00,,,0.00,Wunderground v.1.15,2013-01-06 08:42:00,
2013-01-06 02:47:00,25.1,20.9,29.84,NW,315,3.0,-999.0,84,0.00,,,0.00,Wunderground v.1.15,2013-01-06 08:47:00,
2013-01-06 02:52:00,25.1,20.9,29.84,NW,315,3.0,-999.0,84,0.00,,,0.00,Wunderground v.1.15,2013-01-06 08:52:00,
2013-01-06 02:57:00,25.2,21.0,29.84,NW,315,3.0,-999.0,84,0.00,,,0.00,Wunderground v.1.15,2013-01-06 08:57:00,
2013-01-06 03:02:00,25.2,21.0,29.84,NW,315,3.0,-999.0,84,0.00,,,0.00,Wunderground v.1.15,2013-01-06 09:02:00,
2013-01-06 03:07:00,25.2,20.8,29.84,NW,315,3.0,-999.0,83,0.00,,,0.00,Wunderground v.1.15,2013-01-06 09:07:00,
2013-01-06 03:12:00,25.2,20.8,29.84,NW,315,3.0,-999.0,83,0.00,,,0.00,Wunderground v.1.15,2013-01-06 09:12:00,
2013-01-06 03:17:00,25.1,20.7,29.84,NNW,338,3.0,-999.0,83,0.00,,,0.00,Wunderground v.1.15,2013-01-06 09:17:00,
2013-01-06 03:22:00,25.1,20.7,29.84,NNW,338,3.0,-999.0,83,0.00,,,0.00,Wunderground v.1.15,2013-01-06 09:22:00,
2013-01-06 03:27:00,25.1,20.7,29.84,NNW,338,4.0,-999.0,83,0.00,,,0.00,Wunderground v.1.15,2013-01-06 09:27:00,
2013-01-06 03:32:00,25.1,20.7,29.84,NNW,338,4.0,-999.0,83,0.00,,,0.00,Wunderground v.1.15,2013-01-06 09:32:00,
2013-01-06 03:37:00,25.1,20.7,29.84,NNW,338,2.0,-999.0,83,0.00,,,0.00,Wunderground v.1.15,2013-01-06 09:37:00,
2013-01-06 03:42:00,25.1,20.7,29.84,NNW,338,2.0,-999.0,83,0.00,,,0.00,Wunderground v.1.15,2013-01-06 09:42:00,
2013-01-06 03:47:00,25.3,20.9,29.84,NW,315,4.0,-999.0,83,0.00,,,0.00,Wunderground v.1.15,2013-01-06 09:47:00,
2013-01-06 03:52:00,25.3,20.9,29.84,NW,315,4.0,-999.0,83,0.00,,,0.00,Wunderground v.1.15,2013-01-06 09:52:00,
2013-01-06 03:57:00,25.4,21.0,29.85,NNW,338,5.0,-999.0,83,0.00,,,0.00,Wunderground v.1.15,2013-01-06 09:57:00,
2013-01-06 04:02:00,25.4,21.0,29.85,NNW,338,5.0,-999.0,83,0.00,,,0.00,Wunderground v.1.15,2013-01-06 10:02:00,
2013-01-06 04:07:00,25.3,20.9,29.85,NNW,338,4.0,-999.0,83,0.00,,,0.00,Wunderground v.1.15,2013-01-06 10:07:00,
2013-01-06 04:12:00,25.3,20.9,29.85,NNW,338,4.0,-999.0,83,0.00,,,0.00,Wunderground v.1.15,2013-01-06 10:12:00,
2013-01-06 04:17:00,25.4,21.0,29.85,NNW,338,5.0,-999.0,83,0.00,,,0.00,Wunderground v.1.15,2013-01-06 10:17:00,
2013-01-06 04:22:00,25.4,21.0,29.85,NNW,338,5.0,-999.0,83,0.00,,,0.00,Wunderground v.1.15,2013-01-06 10:22:00,
2013-01-06 04:27:00,25.6,21.2,29.85,NNW,338,5.0,-999.0,83,0.00,,,0.00,Wunderground v.1.15,2013-01-06 10:27:00,
2013-01-06 04:32:00,25.6,21.2,29.85,NNW,338,5.0,-999.0,83,0.00,,,0.00,Wunderground v.1.15,2013-01-06 10:32:00,
2013-01-06 04:37:00,25.8,21.3,29.85,NNW,338,6.0,-999.0,83,0.00,,,0.00,Wunderground v.1.15,2013-01-06 10:37:00,
2013-01-06 04:42:00,25.8,21.3,29.85,NNW,338,6.0,-999.0,83,0.00,,,0.00,Wunderground v.1.15,2013-01-06 10:42:00,
2013-01-06 04:47:00,26.0,21.5,29.85,North,0,6.0,-999.0,83,0.00,,,0.00,Wunderground v.1.15,2013-01-06 10:47:00,
2013-01-06 04:52:00,26.0,21.5,29.85,North,0,6.0,-999.0,83,0.00,,,0.00,Wunderground v.1.15,2013-01-06 10:52:00,
2013-01-06 04:57:00,26.2,21.7,29.86,North,0,5.0,-999.0,83,0.00,,,0.00,Wunderground v.1.15,2013-01-06 10:57:00,
2013-01-06 05:02:00,26.2,21.7,29.86,North,0,5.0,-999.0,83,0.00,,,0.00,Wunderground v.1.15,2013-01-06 11:02:00,
2013-01-06 05:07:00,26.4,21.9,29.86,North,0,5.0,-999.0,83,0.00,,,0.00,Wunderground v.1.15,2013-01-06 11:07:00,
2013-01-06 05:12:00,26.4,21.9,29.86,North,0,5.0,-999.0,83,0.00,,,0.00,Wunderground v.1.15,2013-01-06 11:12:00,
2013-01-06 05:17:00,26.6,22.1,29.86,NNW,338,5.0,-999.0,83,0.00,,,0.00,Wunderground v.1.15,2013-01-06 11:17:00,
2013-01-06 05:22:00,26.6,22.1,29.86,NNW,338,5.0,-999.0,83,0.00,,,0.00,Wunderground v.1.15,2013-01-06 11:22:00,
2013-01-06 05:27:00,26.8,22.3,29.87,NNW,338,5.0,-999.0,83,0.00,,,0.00,Wunderground v.1.15,2013-01-06 11:27:00,
2013-01-06 05:32:00,26.8,22.3,29.87,NNW,338,5.0,-999.0,83,0.00,,,0.00,Wunderground v.1.15,2013-01-06 11:32:00,
2013-01-06 05:37:00,26.9,22.7,29.87,NNW,338,4.0,-999.0,84,0.00,,,0.00,Wunderground v.1.15,2013-01-06 11:37:00,
2013-01-06 05:42:00,26.9,22.7,29.87,NNW,338,4.0,-999.0,84,0.00,,,0.00,Wunderground v.1.15,2013-01-06 11:42:00,
2013-01-06 05:47:00,26.9,22.7,29.88,North,0,5.0,-999.0,84,0.00,,,0.00,Wunderground v.1.15,2013-01-06 11:47:00,
2013-01-06 05:52:00,26.9,22.7,29.88,North,0,5.0,-999.0,84,0.00,,,0.00,Wunderground v.1.15,2013-01-06 11:52:00,
2013-01-06 05:57:00,27.0,22.8,29.88,North,0,5.0,-999.0,84,0.00,,,0.00,Wunderground v.1.15,2013-01-06 11:57:00,
2013-01-06 06:02:00,27.0,22.8,29.88,North,0,5.0,-999.0,84,0.00,,,0.00,Wunderground v.1.15,2013-01-06 12:02:00,
2013-01-06 06:07:00,27.2,23.0,29.88,North,0,4.0,-999.0,84,0.00,,,0.00,Wunderground v.1.15,2013-01-06 12:07:00,
2013-01-06 06:12:00,27.2,23.0,29.88,North,0,4.0,-999.0,84,0.00,,,0.00,Wunderground v.1.15,2013-01-06 12:12:00,
2013-01-06 06:17:00,27.4,23.5,29.89,North,0,5.0,-999.0,85,0.00,,,0.00,Wunderground v.1.15,2013-01-06 12:17:00,
2013-01-06 06:22:00,27.4,23.5,29.89,North,0,5.0,-999.0,85,0.00,,,0.00,Wunderground v.1.15,2013-01-06 12:22:00,
2013-01-06 06:27:00,27.6,23.7,29.89,North,0,5.0,-999.0,85,0.00,,,0.00,Wunderground v.1.15,2013-01-06 12:27:00,
2013-01-06 06:32:00,27.6,23.7,29.89,North,0,5.0,-999.0,85,0.00,,,0.00,Wunderground v.1.15,2013-01-06 12:32:00,
2013-01-06 06:37:00,28.0,24.1,29.90,North,0,5.0,-999.0,85,0.00,,,0.00,Wunderground v.1.15,2013-01-06 12:37:00,
2013-01-06 06:42:00,28.0,24.1,29.90,North,0,5.0,-999.0,85,0.00,,,0.00,Wunderground v.1.15,2013-01-06 12:42:00,
2013-01-06 06:47:00,28.4,24.7,29.90,North,0,5.0,-999.0,86,0.00,,,0.00,Wunderground v.1.15,2013-01-06 12:47:00,
2013-01-06 06:52:00,28.4,24.7,29.90,North,0,5.0,-999.0,86,0.00,,,0.00,Wunderground v.1.15,2013-01-06 12:52:00,
2013-01-06 06:57:00,28.8,25.1,29.91,NNE,23,6.0,-999.0,86,0.00,,,0.00,Wunderground v.1.15,2013-01-06 12:57:00,
2013-01-06 07:02:00,28.8,25.1,29.91,NNE,23,6.0,-999.0,86,0.00,,,0.00,Wunderground v.1.15,2013-01-06 13:02:00,
2013-01-06 07:07:00,29.2,25.5,29.92,NNE,23,6.0,-999.0,86,0.00,,,0.00,Wunderground v.1.15,2013-01-06 13:07:00,
2013-01-06 07:12:00,29.2,25.5,29.92,NNE,23,6.0,-999.0,86,0.00,,,0.00,Wunderground v.1.15,2013-01-06 13:12:00,
2013-01-06 07:17:00,29.6,25.9,29.91,NNE,23,6.0,-999.0,86,0.00,,,0.00,Wunderground v.1.15,2013-01-06 13:17:00,
2013-01-06 07:22:00,29.6,25.9,29.91,NNE,23,6.0,-999.0,86,0.00,,,0.00,Wunderground v.1.15,2013-01-06 13:22:00,
2013-01-06 07:27:00,29.8,25.8,29.92,NNE,23,7.0,-999.0,85,0.00,,,0.00,Wunderground v.1.15,2013-01-06 13:27:00,
2013-01-06 07:32:00,29.8,25.8,29.92,NNE,23,7.0,-999.0,85,0.00,,,0.00,Wunderground v.1.15,2013-01-06 13:32:00,
2013-01-06 07:37:00,30.2,26.2,29.93,NNE,23,7.0,-999.0,85,0.00,,,0.00,Wunderground v.1.15,2013-01-06 13:37:00,
2013-01-06 07:42:00,30.2,26.2,29.93,NNE,23,7.0,-999.0,85,0.00,,,0.00,Wunderground v.1.15,2013-01-06 13:42:00,
2013-01-06 07:47:00,30.4,26.4,29.94,NNE,23,7.0,-999.0,85,0.00,,,0.00,Wunderground v.1.15,2013-01-06 13:47:00,
2013-01-06 07:52:00,30.4,26.4,29.94,NNE,23,7.0,-999.0,85,0.00,,,0.00,Wunderground v.1.15,2013-01-06 13:52:00,
2013-01-06 07:57:00,30.6,26.6,29.94,NNE,23,7.0,-999.0,85,0.00,,,0.00,Wunderground v.1.15,2013-01-06 13:57:00,
2013-01-06 08:02:00,30.6,26.6,29.94,NNE,23,7.0,-999.0,85,0.00,,,0.00,Wunderground v.1.15,2013-01-06 14:02:00,
2013-01-06 08:07:00,30.9,26.6,29.95,NNE,23,9.0,-999.0,84,0.00,,,0.00,Wunderground v.1.15,2013-01-06 14:07:00,
2013-01-06 08:12:00,30.9,26.6,29.95,NNE,23,9.0,-999.0,84,0.00,,,0.00,Wunderground v.1.15,2013-01-06 14:12:00,
2013-01-06 08:17:00,31.3,26.4,29.96,NE,45,12.0,-999.0,82,0.00,,,0.00,Wunderground v.1.15,2013-01-06 14:17:00,
2013-01-06 08:22:00,31.3,26.4,29.96,NE,45,12.0,-999.0,82,0.00,,,0.00,Wunderground v.1.15,2013-01-06 14:22:00,
2013-01-06 08:27:00,31.2,26.0,29.97,NE,45,10.0,-999.0,81,0.00,,,0.00,Wunderground v.1.15,2013-01-06 14:27:00,
2013-01-06 08:32:00,31.2,26.0,29.97,NE,45,10.0,-999.0,81,0.00,,,0.00,Wunderground v.1.15,2013-01-06 14:32:00,
2013-01-06 08:37:00,30.8,25.1,29.97,NE,45,9.0,-999.0,79,0.00,,,0.00,Wunderground v.1.15,2013-01-06 14:37:00,
2013-01-06 08:42:00,30.8,25.1,29.97,NE,45,9.0,-999.0,79,0.00,,,0.00,Wunderground v.1.15,2013-01-06 14:42:00,
2013-01-06 08:47:00,30.9,25.2,29.98,NE,45,10.0,-999.0,79,0.00,,,0.00,Wunderground v.1.15,2013-01-06 14:47:00,
2013-01-06 08:52:00,30.9,25.2,29.98,NE,45,10.0,-999.0,79,0.00,,,0.00,Wunderground v.1.15,2013-01-06 14:52:00,
2013-01-06 08:57:00,30.9,24.8,29.99,NE,45,9.0,-999.0,78,0.00,,,0.00,Wunderground v.1.15,2013-01-06 14:57:00,
2013-01-06 09:02:00,30.9,24.8,29.99,NE,45,9.0,-999.0,78,0.00,,,0.00,Wunderground v.1.15,2013-01-06 15:02:00,
2013-01-06 09:07:00,30.6,24.6,30.00,NE,45,11.0,-999.0,78,0.00,,,0.00,Wunderground v.1.15,2013-01-06 15:07:00,
2013-01-06 09:12:00,30.6,24.6,30.00,NE,45,11.0,-999.0,78,0.00,,,0.00,Wunderground v.1.15,2013-01-06 15:12:00,
2013-01-06 09:17:00,30.6,24.2,30.00,NNE,23,11.0,-999.0,77,0.00,,,0.00,Wunderground v.1.15,2013-01-06 15:17:00,
2013-01-06 09:22:00,30.6,24.2,30.00,NNE,23,11.0,-999.0,77,0.00,,,0.00,Wunderground v.1.15,2013-01-06 15:22:00,
2013-01-06 09:27:00,30.7,24.0,30.01,NE,45,12.0,-999.0,76,0.00,,,0.00,Wunderground v.1.15,2013-01-06 15:27:00,
2013-01-06 09:32:00,30.7,24.0,30.01,NE,45,12.0,-999.0,76,0.00,,,0.00,Wunderground v.1.15,2013-01-06 15:32:00,
2013-01-06 09:37:00,30.6,23.6,30.02,NE,45,12.0,-999.0,75,0.00,,,0.00,Wunderground v.1.15,2013-01-06 15:37:00,
2013-01-06 09:42:00,30.6,23.6,30.02,NE,45,12.0,-999.0,75,0.00,,,0.00,Wunderground v.1.15,2013-01-06 15:42:00,
2013-01-06 09:47:00,30.6,23.3,30.02,NE,45,12.0,-999.0,74,0.00,,,0.00,Wunderground v.1.15,2013-01-06 15:47:00,
2013-01-06 09:52:00,30.6,23.3,30.02,NE,45,12.0,-999.0,74,0.00,,,0.00,Wunderground v.1.15,2013-01-06 15:52:00,
2013-01-06 09:57:00,30.6,23.3,30.03,NE,45,12.0,-999.0,74,0.00,,,0.00,Wunderground v.1.15,2013-01-06 15:57:00,
2013-01-06 10:02:00,30.6,23.3,30.03,NE,45,12.0,-999.0,74,0.00,,,0.00,Wunderground v.1.15,2013-01-06 16:02:00,
2013-01-06 10:07:00,30.5,22.9,30.03,NE,45,11.0,-999.0,73,0.00,,,0.00,Wunderground v.1.15,2013-01-06 16:07:00,
2013-01-06 10:12:00,30.5,22.9,30.03,NE,45,11.0,-999.0,73,0.00,,,0.00,Wunderground v.1.15,2013-01-06 16:12:00,
2013-01-06 10:17:00,30.7,23.1,30.04,NE,45,9.0,-999.0,73,0.00,,,0.00,Wunderground v.1.15,2013-01-06 16:17:00,
2013-01-06 10:22:00,30.7,23.1,30.04,NE,45,9.0,-999.0,73,0.00,,,0.00,Wunderground v.1.15,2013-01-06 16:22:00,
2013-01-06 10:27:00,31.0,23.4,30.04,NE,45,7.0,-999.0,73,0.00,,,0.00,Wunderground v.1.15,2013-01-06 16:27:00,
2013-01-06 10:32:00,31.0,23.4,30.04,NE,45,7.0,-999.0,73,0.00,,,0.00,Wunderground v.1.15,2013-01-06 16:32:00,
2013-01-06 10:37:00,30.8,22.8,30.05,NNE,23,11.0,-999.0,72,0.00,,,0.00,Wunderground v.1.15,2013-01-06 16:37:00,
2013-01-06 10:42:00,30.8,22.8,30.05,NNE,23,11.0,-999.0,72,0.00,,,0.00,Wunderground v.1.15,2013-01-06 16:42:00,
2013-01-06 10:47:00,30.5,22.9,30.05,NNE,23,10.0,-999.0,73,0.00,,,0.00,Wunderground v.1.15,2013-01-06 16:47:00,
2013-01-06 10:52:00,30.5,22.9,30.05,NNE,23,10.0,-999.0,73,0.00,,,0.00,Wunderground v.1.15,2013-01-06 16:52:00,
2013-01-06 10:57:00,30.4,22.8,30.05,NE,45,9.0,-999.0,73,0.00,,,0.00,Wunderground v.1.15,2013-01-06 16:57:00,
2013-01-06 11:02:00,30.4,22.8,30.05,NE,45,9.0,-999.0,73,0.00,,,0.00,Wunderground v.1.15,2013-01-06 17:02:00,
2013-01-06 11:07:00,30.4,22.8,30.06,NE,45,11.0,-999.0,73,0.00,,,0.00,Wunderground v.1.15,2013-01-06 17:07:00,
2013-01-06 11:12:00,30.4,22.8,30.06,NE,45,11.0,-999.0,73,0.00,,,0.00,Wunderground v.1.15,2013-01-06 17:12:00,
2013-01-06 11:17:00,30.3,22.7,30.06,NE,45,9.0,-999.0,73,0.00,,,0.00,Wunderground v.1.15,2013-01-06 17:17:00,
2013-01-06 11:22:00,30.3,22.7,30.06,NE,45,9.0,-999.0,73,0.00,,,0.00,Wunderground v.1.15,2013-01-06 17:22:00,
2013-01-06 11:27:00,29.9,22.3,30.06,NE,45,10.0,-999.0,73,0.00,,,0.00,Wunderground v.1.15,2013-01-06 17:27:00,
2013-01-06 11:32:00,29.9,22.3,30.06,NE,45,10.0,-999.0,73,0.00,,,0.00,Wunderground v.1.15,2013-01-06 17:32:00,
2013-01-06 11:37:00,30.0,22.4,30.07,NE,45,8.0,-999.0,73,0.00,,,0.00,Wunderground v.1.15,2013-01-06 17:37:00,
2013-01-06 11:42:00,30.0,22.4,30.07,NE,45,8.0,-999.0,73,0.00,,,0.00,Wunderground v.1.15,2013-01-06 17:42:00,
2013-01-06 11:47:00,29.9,22.6,30.07,NE,45,8.0,-999.0,74,0.00,,,0.00,Wunderground v.1.15,2013-01-06 17:47:00,
2013-01-06 11:52:00,29.9,22.6,30.07,NE,45,8.0,-999.0,74,0.00,,,0.00,Wunderground v.1.15,2013-01-06 17:52:00,
2013-01-06 11:57:00,29.9,22.3,30.07,NE,45,8.0,-999.0,73,0.00,,,0.00,Wunderground v.1.15,2013-01-06 17:57:00,
2013-01-06 12:02:00,29.9,22.3,30.07,NE,45,8.0,-999.0,73,0.00,,,0.00,Wunderground v.1.15,2013-01-06 18:02:00,
2013-01-06 12:07:00,30.0,22.4,30.07,NE,45,7.0,-999.0,73,0.00,,,0.00,Wunderground v.1.15,2013-01-06 18:07:00,
2013-01-06 12:12:00,30.0,22.4,30.07,NE,45,7.0,-999.0,73,0.00,,,0.00,Wunderground v.1.15,2013-01-06 18:12:00,
2013-01-06 12:17:00,30.1,22.2,30.08,NE,45,9.0,-999.0,72,0.00,,,0.00,Wunderground v.1.15,2013-01-06 18:17:00,
2013-01-06 12:22:00,30.1,22.2,30.08,NE,45,9.0,-999.0,72,0.00,,,0.00,Wunderground v.1.15,2013-01-06 18:22:00,
2013-01-06 12:27:00,30.0,22.1,30.08,NE,45,8.0,-999.0,72,0.00,,,0.00,Wunderground v.1.15,2013-01-06 18:27:00,
2013-01-06 12:32:00,30.0,22.1,30.08,NE,45,8.0,-999.0,72,0.00,,,0.00,Wunderground v.1.15,2013-01-06 18:32:00,
2013-01-06 12:37:00,29.7,21.4,30.08,NE,45,10.0,-999.0,71,0.00,,,0.00,Wunderground v.1.15,2013-01-06 18:37:00,
2013-01-06 12:42:00,29.7,21.4,30.08,NE,45,10.0,-999.0,71,0.00,,,0.00,Wunderground v.1.15,2013-01-06 18:42:00,
2013-01-06 12:47:00,30.2,21.6,30.08,NE,45,8.0,-999.0,70,0.00,,,0.00,Wunderground v.1.15,2013-01-06 18:47:00,
2013-01-06 12:52:00,30.2,21.6,30.08,NE,45,8.0,-999.0,70,0.00,,,0.00,Wunderground v.1.15,2013-01-06 18:52:00,
2013-01-06 12:57:00,30.7,21.7,30.08,NE,45,8.0,-999.0,69,0.00,,,0.00,Wunderground v.1.15,2013-01-06 18:57:00,
2013-01-06 13:02:00,30.7,21.7,30.08,NE,45,8.0,-999.0,69,0.00,,,0.00,Wunderground v.1.15,2013-01-06 19:02:00,
2013-01-06 13:07:00,30.6,20.9,30.08,NNE,23,9.0,-999.0,67,0.00,,,0.00,Wunderground v.1.15,2013-01-06 19:07:00,
2013-01-06 13:12:00,30.6,20.9,30.08,NNE,23,9.0,-999.0,67,0.00,,,0.00,Wunderground v.1.15,2013-01-06 19:12:00,
2013-01-06 13:17:00,30.9,21.2,30.08,NNE,23,7.0,-999.0,67,0.00,,,0.00,Wunderground v.1.15,2013-01-06 19:17:00,
2013-01-06 13:22:00,30.9,21.2,30.08,NNE,23,7.0,-999.0,67,0.00,,,0.00,Wunderground v.1.15,2013-01-06 19:22:00,
2013-01-06 13:27:00,30.6,20.6,30.08,NNE,23,7.0,-999.0,66,0.00,,,0.00,Wunderground v.1.15,2013-01-06 19:27:00,
2013-01-06 13:32:00,30.6,20.6,30.08,NNE,23,7.0,-999.0,66,0.00,,,0.00,Wunderground v.1.15,2013-01-06 19:32:00,
2013-01-06 13:37:00,31.0,21.0,30.08,North,0,6.0,-999.0,66,0.00,,,0.00,Wunderground v.1.15,2013-01-06 19:37:00,
2013-01-06 13:42:00,31.0,21.0,30.08,North,0,6.0,-999.0,66,0.00,,,0.00,Wunderground v.1.15,2013-01-06 19:42:00,
2013-01-06 13:47:00,31.3,20.5,30.09,NNE,23,5.0,-999.0,64,0.00,,,0.00,Wunderground v.1.15,2013-01-06 19:47:00,
2013-01-06 13:52:00,31.3,20.5,30.09,NNE,23,5.0,-999.0,64,0.00,,,0.00,Wunderground v.1.15,2013-01-06 19:52:00,
2013-01-06 13:57:00,31.2,20.4,30.10,NE,45,7.0,-999.0,64,0.00,,,0.00,Wunderground v.1.15,2013-01-06 19:57:00,
2013-01-06 14:02:00,31.2,20.4,30.10,NE,45,7.0,-999.0,64,0.00,,,0.00,Wunderground v.1.15,2013-01-06 20:02:00,
2013-01-06 14:07:00,31.3,20.2,30.10,NE,45,7.0,-999.0,63,0.00,,,0.00,Wunderground v.1.15,2013-01-06 20:07:00,
2013-01-06 14:12:00,31.3,20.2,30.10,NE,45,7.0,-999.0,63,0.00,,,0.00,Wunderground v.1.15,2013-01-06 20:12:00,
2013-01-06 14:17:00,31.7,20.5,30.11,NE,45,6.0,-999.0,63,0.00,,,0.00,Wunderground v.1.15,2013-01-06 20:17:00,
2013-01-06 14:22:00,31.7,20.5,30.11,NE,45,6.0,-999.0,63,0.00,,,0.00,Wunderground v.1.15,2013-01-06 20:22:00,
2013-01-06 14:27:00,31.0,19.9,30.12,NE,45,6.0,-999.0,63,0.00,,,0.00,Wunderground v.1.15,2013-01-06 20:27:00,
2013-01-06 14:32:00,31.0,19.9,30.12,NE,45,6.0,-999.0,63,0.00,,,0.00,Wunderground v.1.15,2013-01-06 20:32:00,
2013-01-06 14:37:00,30.7,20.0,30.12,North,0,5.0,-999.0,64,0.00,,,0.00,Wunderground v.1.15,2013-01-06 20:37:00,
2013-01-06 14:42:00,30.7,20.0,30.12,North,0,5.0,-999.0,64,0.00,,,0.00,Wunderground v.1.15,2013-01-06 20:42:00,
2013-01-06 14:47:00,30.8,20.4,30.13,North,0,4.0,-999.0,65,0.00,,,0.00,Wunderground v.1.15,2013-01-06 20:47:00,
2013-01-06 14:52:00,30.8,20.4,30.13,North,0,4.0,-999.0,65,0.00,,,0.00,Wunderground v.1.15,2013-01-06 20:52:00,
2013-01-06 14:57:00,31.3,20.5,30.14,NE,45,5.0,-999.0,64,0.00,,,0.00,Wunderground v.1.15,2013-01-06 20:57:00,
2013-01-06 15:02:00,31.3,20.5,30.14,NE,45,5.0,-999.0,64,0.00,,,0.00,Wunderground v.1.15,2013-01-06 21:02:00,
2013-01-06 15:07:00,30.9,20.1,30.14,NE,45,7.0,-999.0,64,0.00,,,0.00,Wunderground v.1.15,2013-01-06 21:07:00,
2013-01-06 15:12:00,30.9,20.1,30.14,NE,45,7.0,-999.0,64,0.00,,,0.00,Wunderground v.1.15,2013-01-06 21:12:00,
2013-01-06 15:17:00,31.0,19.9,30.15,NNE,23,5.0,-999.0,63,0.00,,,0.00,Wunderground v.1.15,2013-01-06 21:17:00,
2013-01-06 15:22:00,31.0,19.9,30.15,NNE,23,5.0,-999.0,63,0.00,,,0.00,Wunderground v.1.15,2013-01-06 21:22:00,
2013-01-06 15:27:00,30.9,19.8,30.15,NE,45,5.0,-999.0,63,0.00,,,0.00,Wunderground v.1.15,2013-01-06 21:27:00,
2013-01-06 15:32:00,30.9,19.8,30.15,NE,45,5.0,-999.0,63,0.00,,,0.00,Wunderground v.1.15,2013-01-06 21:32:00,
2013-01-06 15:37:00,30.6,19.5,30.15,NE,45,6.0,-999.0,63,0.00,,,0.00,Wunderground v.1.15,2013-01-06 21:37:00,
2013-01-06 15:42:00,30.6,19.5,30.15,NE,45,6.0,-999.0,63,0.00,,,0.00,Wunderground v.1.15,2013-01-06 21:42:00,
2013-01-06 15:47:00,30.4,19.7,30.16,NE,45,4.0,-999.0,64,0.00,,,0.00,Wunderground v.1.15,2013-01-06 21:47:00,
2013-01-06 15:52:00,30.4,19.7,30.16,NE,45,4.0,-999.0,64,0.00,,,0.00,Wunderground v.1.15,2013-01-06 21:52:00,
2013-01-06 15:57:00,30.2,19.5,30.17,NNE,23,3.0,-999.0,64,0.00,,,0.00,Wunderground v.1.15,2013-01-06 21:57:00,
2013-01-06 16:02:00,30.2,19.5,30.17,NNE,23,3.0,-999.0,64,0.00,,,0.00,Wunderground v.1.15,2013-01-06 22:02:00,
2013-01-06 16:07:00,30.0,19.3,30.17,NE,45,2.0,-999.0,64,0.00,,,0.00,Wunderground v.1.15,2013-01-06 22:07:00,
2013-01-06 16:12:00,30.0,19.3,30.17,NE,45,2.0,-999.0,64,0.00,,,0.00,Wunderground v.1.15,2013-01-06 22:12:00,
2013-01-06 16:17:00,29.8,19.1,30.18,NE,45,2.0,-999.0,64,0.00,,,0.00,Wunderground v.1.15,2013-01-06 22:17:00,
2013-01-06 16:22:00,29.8,19.1,30.18,NE,45,2.0,-999.0,64,0.00,,,0.00,Wunderground v.1.15,2013-01-06 22:22:00,
2013-01-06 16:27:00,29.5,19.2,30.19,NE,45,1.0,-999.0,65,0.00,,,0.00,Wunderground v.1.15,2013-01-06 22:27:00,
2013-01-06 16:32:00,29.5,19.2,30.19,NE,45,1.0,-999.0,65,0.00,,,0.00,Wunderground v.1.15,2013-01-06 22:32:00,
2013-01-06 16:37:00,29.1,18.8,30.19,NE,45,1.0,-999.0,65,0.00,,,0.00,Wunderground v.1.15,2013-01-06 22:37:00,
2013-01-06 16:42:00,29.1,18.8,30.19,NE,45,1.0,-999.0,65,0.00,,,0.00,Wunderground v.1.15,2013-01-06 22:42:00,
2013-01-06 16:47:00,28.2,17.9,30.19,N/A,-737280,0.0,-999.0,65,0.00,,,0.00,Wunderground v.1.15,2013-01-06 22:47:00,
2013-01-06 16:52:00,28.2,17.9,30.19,N/A,-737280,0.0,-999.0,65,0.00,,,0.00,Wunderground v.1.15,2013-01-06 22:52:00,
2013-01-06 16:57:00,27.5,17.6,30.19,N/A,-737280,0.0,-999.0,66,0.00,,,0.00,Wunderground v.1.15,2013-01-06 22:57:00,
2013-01-06 17:02:00,27.5,17.6,30.19,N/A,-737280,0.0,-999.0,66,0.00,,,0.00,Wunderground v.1.15,2013-01-06 23:02:00,
2013-01-06 17:07:00,26.8,17.3,30.20,N/A,-737280,0.0,-999.0,67,0.00,,,0.00,Wunderground v.1.15,2013-01-06 23:07:00,
2013-01-06 17:12:00,26.8,17.3,30.20,N/A,-737280,0.0,-999.0,67,0.00,,,0.00,Wunderground v.1.15,2013-01-06 23:12:00,
2013-01-06 17:17:00,26.0,16.9,30.20,N/A,-737280,0.0,-999.0,68,0.00,,,0.00,Wunderground v.1.15,2013-01-06 23:17:00,
2013-01-06 17:22:00,26.0,16.9,30.20,N/A,-737280,0.0,-999.0,68,0.00,,,0.00,Wunderground v.1.15,2013-01-06 23:22:00,
2013-01-06 17:27:00,24.9,16.2,30.20,N/A,-737280,0.0,-999.0,69,0.00,,,0.00,Wunderground v.1.15,2013-01-06 23:27:00,
2013-01-06 17:32:00,24.9,16.2,30.20,N/A,-737280,0.0,-999.0,69,0.00,,,0.00,Wunderground v.1.15,2013-01-06 23:32:00,
2013-01-06 17:37:00,23.5,15.5,30.20,N/A,-737280,0.0,-999.0,71,0.00,,,0.00,Wunderground v.1.15,2013-01-06 23:37:00,
2013-01-06 17:42:00,23.5,15.5,30.20,N/A,-737280,0.0,-999.0,71,0.00,,,0.00,Wunderground v.1.15,2013-01-06 23:42:00,
2013-01-06 17:47:00,22.7,15.3,30.20,N/A,-737280,0.0,-999.0,73,0.00,,,0.00,Wunderground v.1.15,2013-01-06 23:47:00,
2013-01-06 17:52:00,22.7,15.3,30.20,N/A,-737280,0.0,-999.0,73,0.00,,,0.00,Wunderground v.1.15,2013-01-06 23:52:00,
2013-01-06 17:57:00,22.2,15.2,30.21,N/A,-737280,0.0,-999.0,74,0.00,,,0.00,Wunderground v.1.15,2013-01-06 23:57:00,
2013-01-06 18:02:00,22.2,15.2,30.21,N/A,-737280,0.0,-999.0,74,0.00,,,0.00,Wunderground v.1.15,2013-01-07 00:02:00,
2013-01-06 18:07:00,22.0,15.6,30.22,N/A,-737280,0.0,-999.0,76,0.00,,,0.00,Wunderground v.1.15,2013-01-07 00:07:00,
2013-01-06 18:12:00,22.0,15.6,30.22,N/A,-737280,0.0,-999.0,76,0.00,,,0.00,Wunderground v.1.15,2013-01-07 00:12:00,
2013-01-06 18:17:00,21.9,15.5,30.22,N/A,-737280,0.0,-999.0,76,0.00,,,0.00,Wunderground v.1.15,2013-01-07 00:17:00,
2013-01-06 18:22:00,21.9,15.5,30.22,N/A,-737280,0.0,-999.0,76,0.00,,,0.00,Wunderground v.1.15,2013-01-07 00:22:00,
2013-01-06 18:27:00,21.8,15.7,30.22,N/A,-737280,0.0,-999.0,77,0.00,,,0.00,Wunderground v.1.15,2013-01-07 00:27:00,
2013-01-06 18:32:00,21.8,15.7,30.22,N/A,-737280,0.0,-999.0,77,0.00,,,0.00,Wunderground v.1.15,2013-01-07 00:32:00,
2013-01-06 18:37:00,21.1,15.0,30.22,N/A,-737280,0.0,-999.0,77,0.00,,,0.00,Wunderground v.1.15,2013-01-07 00:37:00,
2013-01-06 18:42:00,21.1,15.0,30.22,N/A,-737280,0.0,-999.0,77,0.00,,,0.00,Wunderground v.1.15,2013-01-07 00:42:00,
2013-01-06 18:47:00,20.6,14.5,30.23,N/A,-737280,0.0,-999.0,77,0.00,,,0.00,Wunderground v.1.15,2013-01-07 00:47:00,
2013-01-06 18:52:00,20.6,14.5,30.23,N/A,-737280,0.0,-999.0,77,0.00,,,0.00,Wunderground v.1.15,2013-01-07 00:52:00,
2013-01-06 18:57:00,19.9,14.1,30.22,N/A,-737280,0.0,-999.0,78,0.00,,,0.00,Wunderground v.1.15,2013-01-07 00:57:00,
2013-01-06 19:02:00,19.9,14.1,30.22,N/A,-737280,0.0,-999.0,78,0.00,,,0.00,Wunderground v.1.15,2013-01-07 01:02:00,
2013-01-06 19:07:00,19.2,13.5,30.21,N/A,-737280,0.0,-999.0,78,0.00,,,0.00,Wunderground v.1.15,2013-01-07 01:07:00,
2013-01-06 19:12:00,19.2,13.5,30.21,N/A,-737280,0.0,-999.0,78,0.00,,,0.00,Wunderground v.1.15,2013-01-07 01:12:00,
2013-01-06 19:17:00,18.8,13.4,30.22,N/A,-737280,0.0,-999.0,79,0.00,,,0.00,Wunderground v.1.15,2013-01-07 01:17:00,
2013-01-06 19:22:00,18.8,13.4,30.22,N/A,-737280,0.0,-999.0,79,0.00,,,0.00,Wunderground v.1.15,2013-01-07 01:22:00,
2013-01-06 19:27:00,18.3,13.2,30.22,N/A,-737280,0.0,-999.0,80,0.00,,,0.00,Wunderground v.1.15,2013-01-07 01:27:00,
2013-01-06 19:32:00,18.3,13.2,30.22,N/A,-737280,0.0,-999.0,80,0.00,,,0.00,Wunderground v.1.15,2013-01-07 01:32:00,
2013-01-06 19:37:00,17.8,12.7,30.21,N/A,-737280,0.0,-999.0,80,0.00,,,0.00,Wunderground v.1.15,2013-01-07 01:37:00,
2013-01-06 19:42:00,17.8,12.7,30.21,N/A,-737280,0.0,-999.0,80,0.00,,,0.00,Wunderground v.1.15,2013-01-07 01:42:00,
2013-01-06 19:47:00,17.4,12.6,30.21,N/A,-737280,0.0,-999.0,81,0.00,,,0.00,Wunderground v.1.15,2013-01-07 01:47:00,
2013-01-06 19:52:00,17.4,12.6,30.21,N/A,-737280,0.0,-999.0,81,0.00,,,0.00,Wunderground v.1.15,2013-01-07 01:52:00,
2013-01-06 19:57:00,17.3,12.7,30.21,N/A,-737280,0.0,-999.0,82,0.00,,,0.00,Wunderground v.1.15,2013-01-07 01:57:00,
2013-01-06 20:02:00,17.3,12.7,30.21,N/A,-737280,0.0,-999.0,82,0.00,,,0.00,Wunderground v.1.15,2013-01-07 02:02:00,
2013-01-06 20:07:00,17.2,12.6,30.23,N/A,-737280,0.0,-999.0,82,0.00,,,0.00,Wunderground v.1.15,2013-01-07 02:07:00,
2013-01-06 20:12:00,17.2,12.6,30.23,N/A,-737280,0.0,-999.0,82,0.00,,,0.00,Wunderground v.1.15,2013-01-07 02:12:00,
2013-01-06 20:17:00,17.1,12.8,30.23,N/A,-737280,0.0,-999.0,83,0.00,,,0.00,Wunderground v.1.15,2013-01-07 02:17:00,
2013-01-06 20:22:00,17.1,12.8,30.23,N/A,-737280,0.0,-999.0,83,0.00,,,0.00,Wunderground v.1.15,2013-01-07 02:22:00,
2013-01-06 20:27:00,16.9,12.6,30.23,N/A,-737280,0.0,-999.0,83,0.00,,,0.00,Wunderground v.1.15,2013-01-07 02:27:00,
2013-01-06 20:32:00,16.9,12.6,30.23,N/A,-737280,0.0,-999.0,83,0.00,,,0.00,Wunderground v.1.15,2013-01-07 02:32:00,
2013-01-06 20:37:00,16.7,12.4,30.23,N/A,-737280,0.0,-999.0,83,0.00,,,0.00,Wunderground v.1.15,2013-01-07 02:37:00,
2013-01-06 20:42:00,16.7,12.4,30.23,N/A,-737280,0.0,-999.0,83,0.00,,,0.00,Wunderground v.1.15,2013-01-07 02:42:00,
2013-01-06 20:47:00,16.5,12.5,30.22,N/A,-737280,0.0,-999.0,84,0.00,,,0.00,Wunderground v.1.15,2013-01-07 02:47:00,
2013-01-06 20:52:00,16.5,12.5,30.22,N/A,-737280,0.0,-999.0,84,0.00,,,0.00,Wunderground v.1.15,2013-01-07 02:52:00,
2013-01-06 20:57:00,16.2,12.2,30.22,N/A,-737280,0.0,-999.0,84,0.00,,,0.00,Wunderground v.1.15,2013-01-07 02:57:00,
2013-01-06 21:02:00,16.2,12.2,30.22,N/A,-737280,0.0,-999.0,84,0.00,,,0.00,Wunderground v.1.15,2013-01-07 03:02:00,
2013-01-06 21:07:00,15.6,11.6,30.23,N/A,-737280,0.0,-999.0,84,0.00,,,0.00,Wunderground v.1.15,2013-01-07 03:07:00,
2013-01-06 21:12:00,15.6,11.6,30.23,N/A,-737280,0.0,-999.0,84,0.00,,,0.00,Wunderground v.1.15,2013-01-07 03:12:00,
2013-01-06 21:17:00,15.3,11.3,30.23,N/A,-737280,0.0,-999.0,84,0.00,,,0.00,Wunderground v.1.15,2013-01-07 03:17:00,
2013-01-06 21:22:00,15.3,11.3,30.23,N/A,-737280,0.0,-999.0,84,0.00,,,0.00,Wunderground v.1.15,2013-01-07 03:22:00,
2013-01-06 21:27:00,15.1,11.1,30.23,N/A,-737280,0.0,-999.0,84,0.00,,,0.00,Wunderground v.1.15,2013-01-07 03:27:00,
2013-01-06 21:32:00,15.1,11.1,30.23,N/A,-737280,0.0,-999.0,84,0.00,,,0.00,Wunderground v.1.15,2013-01-07 03:32:00,
2013-01-06 21:37:00,14.9,11.2,30.23,N/A,-737280,0.0,-999.0,85,0.00,,,0.00,Wunderground v.1.15,2013-01-07 03:37:00,
2013-01-06 21:42:00,14.9,11.2,30.23,N/A,-737280,0.0,-999.0,85,0.00,,,0.00,Wunderground v.1.15,2013-01-07 03:42:00,
2013-01-06 21:47:00,14.6,10.9,30.24,N/A,-737280,0.0,-999.0,85,0.00,,,0.00,Wunderground v.1.15,2013-01-07 03:47:00,
2013-01-06 21:52:00,14.6,10.9,30.24,N/A,-737280,0.0,-999.0,85,0.00,,,0.00,Wunderground v.1.15,2013-01-07 03:52:00,
2013-01-06 21:57:00,14.2,10.5,30.23,N/A,-737280,0.0,-999.0,85,0.00,,,0.00,Wunderground v.1.15,2013-01-07 03:57:00,
2013-01-06 22:02:00,14.2,10.5,30.23,N/A,-737280,0.0,-999.0,85,0.00,,,0.00,Wunderground v.1.15,2013-01-07 04:02:00,
2013-01-06 22:07:00,14.1,10.7,30.24,NE,45,0.0,-999.0,86,0.00,,,0.00,Wunderground v.1.15,2013-01-07 04:07:00,
2013-01-06 22:12:00,14.1,10.7,30.24,NE,45,0.0,-999.0,86,0.00,,,0.00,Wunderground v.1.15,2013-01-07 04:12:00,
2013-01-06 22:17:00,14.1,10.7,30.23,N/A,-737280,0.0,-999.0,86,0.00,,,0.00,Wunderground v.1.15,2013-01-07 04:17:00,
2013-01-06 22:22:00,14.1,10.7,30.23,N/A,-737280,0.0,-999.0,86,0.00,,,0.00,Wunderground v.1.15,2013-01-07 04:22:00,
2013-01-06 22:27:00,13.9,10.5,30.24,N/A,-737280,0.0,-999.0,86,0.00,,,0.00,Wunderground v.1.15,2013-01-07 04:27:00,
2013-01-06 22:32:00,13.9,10.5,30.24,N/A,-737280,0.0,-999.0,86,0.00,,,0.00,Wunderground v.1.15,2013-01-07 04:32:00,
2013-01-06 22:37:00,13.8,10.6,30.24,N/A,-737280,0.0,-999.0,87,0.00,,,0.00,Wunderground v.1.15,2013-01-07 04:37:00,
2013-01-06 22:42:00,13.8,10.6,30.24,N/A,-737280,0.0,-999.0,87,0.00,,,0.00,Wunderground v.1.15,2013-01-07 04:42:00,
2013-01-06 22:47:00,13.7,10.3,30.23,N/A,-737280,0.0,-999.0,86,0.00,,,0.00,Wunderground v.1.15,2013-01-07 04:47:00,
2013-01-06 22:52:00,13.7,10.3,30.23,N/A,-737280,0.0,-999.0,86,0.00,,,0.00,Wunderground v.1.15,2013-01-07 04:52:00,
2013-01-06 22:57:00,13.8,10.4,30.23,NE,45,0.0,-999.0,86,0.00,,,0.00,Wunderground v.1.15,2013-01-07 04:57:00,
2013-01-06 23:02:00,13.8,10.4,30.23,NE,45,0.0,-999.0,86,0.00,,,0.00,Wunderground v.1.15,2013-01-07 05:02:00,
2013-01-06 23:07:00,14.1,10.9,30.24,N/A,-737280,0.0,-999.0,87,0.00,,,0.00,Wunderground v.1.15,2013-01-07 05:07:00,
2013-01-06 23:12:00,14.1,10.9,30.24,N/A,-737280,0.0,-999.0,87,0.00,,,0.00,Wunderground v.1.15,2013-01-07 05:12:00,
2013-01-06 23:17:00,14.1,10.9,30.23,N/A,-737280,0.0,-999.0,87,0.00,,,0.00,Wunderground v.1.15,2013-01-07 05:17:00,
2013-01-06 23:22:00,14.1,10.9,30.23,N/A,-737280,0.0,-999.0,87,0.00,,,0.00,Wunderground v.1.15,2013-01-07 05:22:00,
2013-01-06 23:27:00,14.1,10.9,30.23,N/A,-737280,0.0,-999.0,87,0.00,,,0.00,Wunderground v.1.15,2013-01-07 05:27:00,
2013-01-06 23:32:00,14.1,10.9,30.23,N/A,-737280,0.0,-999.0,87,0.00,,,0.00,Wunderground v.1.15,2013-01-07 05:32:00,
2013-01-06 23:37:00,14.7,11.8,30.23,N/A,-737280,0.0,-999.0,88,0.00,,,0.00,Wunderground v.1.15,2013-01-07 05:37:00,
2013-01-06 23:42:00,14.7,11.8,30.23,N/A,-737280,0.0,-999.0,88,0.00,,,0.00,Wunderground v.1.15,2013-01-07 05:42:00,
2013-01-06 23:47:00,15.4,12.5,30.23,NE,45,0.0,-999.0,88,0.00,,,0.00,Wunderground v.1.15,2013-01-07 05:47:00,
2013-01-06 23:52:00,15.4,12.5,30.23,NE,45,0.0,-999.0,88,0.00,,,0.00,Wunderground v.1.15,2013-01-07 05:52:00,
2013-01-06 23:57:00,15.9,13.2,30.23,West,270,0.0,-999.0,89,0.00,,,0.00,Wunderground v.1.15,2013-01-07 05:57:00,